createdAt,value
2016-12-28T00:00:34.730Z,27.5
2016-12-28T00:01:33.359Z,27.6
2016-12-28T00:02:34.943Z,27.6
2016-12-28T00:03:35.078Z,27.6
2016-12-28T00:04:35.130Z,27.6
2016-12-28T00:05:33.647Z,27.6
2016-12-28T00:06:35.183Z,27.6
2016-12-28T00:07:33.701Z,27.6
2016-12-28T00:08:33.634Z,27.6
2016-12-28T00:09:35.166Z,27.6
2016-12-28T00:10:33.565Z,27.6
2016-12-28T00:11:35.206Z,27.6
2016-12-28T00:12:35.308Z,27.5
2016-12-28T00:13:33.724Z,27.5
2016-12-28T00:14:33.678Z,27.6
2016-12-28T00:15:33.737Z,27.6
2016-12-28T00:16:35.365Z,27.6
2016-12-28T00:17:35.567Z,27.6
2016-12-28T00:18:33.899Z,27.6
2016-12-28T00:19:35.668Z,27.6
2016-12-28T00:20:34.019Z,27.6
2016-12-28T00:21:35.628Z,27.6
2016-12-28T00:22:34.276Z,27.5
2016-12-28T00:23:35.839Z,27.6
2016-12-28T00:24:35.814Z,27.5
2016-12-28T00:25:34.230Z,27.6
2016-12-28T00:26:35.918Z,27.6
2016-12-28T00:27:35.848Z,27.6
2016-12-28T00:28:35.937Z,27.6
2016-12-28T00:29:34.464Z,27.5
2016-12-28T00:30:36.055Z,27.5
2016-12-28T00:31:36.025Z,27.5
2016-12-28T00:32:35.983Z,27.5
2016-12-28T00:33:36.172Z,27.5
2016-12-28T00:34:36.085Z,27.5
2016-12-28T00:35:34.595Z,27.5
2016-12-28T00:36:34.682Z,27.5
2016-12-28T00:37:34.679Z,27.5
2016-12-28T00:38:36.342Z,27.5
2016-12-28T00:39:36.532Z,27.5
2016-12-28T00:40:36.480Z,27.5
2016-12-28T00:41:34.875Z,27.5
2016-12-28T00:42:36.548Z,27.5
2016-12-28T00:43:35.027Z,27.5
2016-12-28T00:44:35.057Z,27.5
2016-12-28T00:45:36.822Z,27.5
2016-12-28T00:46:36.823Z,27.5
2016-12-28T00:47:36.788Z,27.5
2016-12-28T00:48:36.795Z,27.5
2016-12-28T00:49:36.822Z,27.5
2016-12-28T00:50:35.235Z,27.5
2016-12-28T00:51:36.835Z,27.5
2016-12-28T00:52:35.444Z,27.5
2016-12-28T00:53:37.080Z,27.5
2016-12-28T00:54:35.552Z,27.5
2016-12-28T00:55:37.082Z,27.5
2016-12-28T00:56:35.735Z,27.5
2016-12-28T00:57:35.556Z,27.5
2016-12-28T00:58:35.773Z,27.5
2016-12-28T00:59:35.735Z,27.5
2016-12-28T01:00:37.337Z,27.5
2016-12-28T01:01:35.776Z,27.5
2016-12-28T01:02:37.452Z,27.5
2016-12-28T01:03:37.457Z,27.5
2016-12-28T01:04:36.071Z,27.5
2016-12-28T01:05:36.160Z,27.5
2016-12-28T01:06:37.683Z,27.5
2016-12-28T01:07:36.203Z,27.5
2016-12-28T01:08:37.824Z,27.5
2016-12-28T01:09:36.261Z,27.5
2016-12-28T01:10:36.369Z,27.5
2016-12-28T01:11:38.110Z,27.5
2016-12-28T01:12:36.604Z,27.5
2016-12-28T01:13:36.671Z,27.5
2016-12-28T01:14:38.240Z,27.5
2016-12-28T01:15:38.412Z,27.5
2016-12-28T01:16:38.465Z,27.5
2016-12-28T01:17:36.809Z,27.5
2016-12-28T01:18:38.579Z,27.5
2016-12-28T01:19:38.500Z,27.5
2016-12-28T01:20:37.012Z,27.5
2016-12-28T01:21:38.691Z,27.5
2016-12-28T01:22:38.773Z,27.5
2016-12-28T01:23:37.212Z,27.5
2016-12-28T01:24:37.277Z,27.5
2016-12-28T01:25:37.250Z,27.5
2016-12-28T01:26:38.980Z,27.5
2016-12-28T01:27:39.084Z,27.5
2016-12-28T01:28:39.037Z,27.5
2016-12-28T01:29:37.452Z,27.5
2016-12-28T01:30:39.214Z,27.5
2016-12-28T01:31:39.141Z,27.5
2016-12-28T01:32:37.705Z,27.5
2016-12-28T01:33:37.617Z,27.5
2016-12-28T01:34:39.317Z,27.5
2016-12-28T01:35:37.948Z,27.5
2016-12-28T01:36:38.017Z,27.5
2016-12-28T01:37:39.615Z,27.5
2016-12-28T01:38:38.005Z,27.5
2016-12-28T01:39:38.011Z,27.5
2016-12-28T01:40:39.774Z,27.5
2016-12-28T01:41:38.147Z,27.5
2016-12-28T01:42:39.852Z,27.5
2016-12-28T01:43:38.367Z,27.5
2016-12-28T01:44:39.876Z,27.5
2016-12-28T01:45:38.285Z,27.5
2016-12-28T01:46:38.356Z,27.5
2016-12-28T01:47:40.097Z,27.5
2016-12-28T01:48:38.473Z,27.5
2016-12-28T01:49:38.667Z,27.5
2016-12-28T01:50:38.679Z,27.5
2016-12-28T01:51:40.117Z,27.5
2016-12-28T01:52:38.678Z,27.5
2016-12-28T01:53:38.537Z,27.5
2016-12-28T01:54:38.622Z,27.5
2016-12-28T01:55:40.197Z,27.5
2016-12-28T01:56:38.743Z,27.5
2016-12-28T01:57:38.635Z,27.5
2016-12-28T01:58:38.750Z,27.5
2016-12-28T01:59:40.331Z,27.5
2016-12-28T02:00:38.955Z,27.5
2016-12-28T02:01:40.528Z,27.5
2016-12-28T02:02:40.532Z,27.5
2016-12-28T02:03:38.960Z,27.5
2016-12-28T02:04:40.577Z,27.5
2016-12-28T02:05:39.030Z,27.5
2016-12-28T02:06:40.653Z,27.5
2016-12-28T02:07:39.212Z,27.5
2016-12-28T02:08:39.284Z,27.5
2016-12-28T02:09:39.349Z,27.5
2016-12-28T02:10:39.256Z,27.5
2016-12-28T02:11:40.959Z,27.5
2016-12-28T02:12:39.550Z,27.5
2016-12-28T02:13:39.458Z,27.5
2016-12-28T02:14:41.234Z,27.5
2016-12-28T02:15:41.294Z,27.5
2016-12-28T02:16:39.796Z,27.5
2016-12-28T02:17:41.440Z,27.5
2016-12-28T02:18:41.545Z,27.5
2016-12-28T02:19:41.408Z,27.5
2016-12-28T02:20:41.409Z,27.5
2016-12-28T02:21:41.531Z,27.5
2016-12-28T02:22:41.651Z,27.5
2016-12-28T02:23:40.037Z,27.5
2016-12-28T02:24:41.742Z,27.5
2016-12-28T02:25:40.198Z,27.5
2016-12-28T02:26:40.253Z,27.5
2016-12-28T02:27:40.307Z,27.5
2016-12-28T02:28:41.861Z,27.5
2016-12-28T02:29:42.014Z,27.5
2016-12-28T02:30:42.043Z,27.5
2016-12-28T02:31:41.959Z,27.5
2016-12-28T02:32:40.573Z,27.5
2016-12-28T02:33:40.581Z,27.5
2016-12-28T02:34:40.573Z,27.5
2016-12-28T02:35:40.619Z,27.5
2016-12-28T02:36:42.245Z,27.5
2016-12-28T02:37:40.612Z,27.5
2016-12-28T02:38:42.321Z,27.5
2016-12-28T02:39:42.346Z,27.5
2016-12-28T02:40:40.827Z,27.5
2016-12-28T02:41:42.538Z,27.5
2016-12-28T02:42:42.588Z,27.5
2016-12-28T02:43:42.529Z,27.4
2016-12-28T02:44:41.102Z,27.5
2016-12-28T02:45:42.619Z,27.4
2016-12-28T02:46:41.240Z,27.5
2016-12-28T02:47:41.116Z,27.5
2016-12-28T02:48:41.347Z,27.5
2016-12-28T02:49:43.037Z,27.5
2016-12-28T02:50:42.963Z,27.5
2016-12-28T02:51:41.460Z,27.4
2016-12-28T02:52:42.996Z,27.5
2016-12-28T02:53:41.580Z,27.5
2016-12-28T02:54:41.427Z,27.5
2016-12-28T02:55:41.635Z,27.5
2016-12-28T02:56:43.307Z,27.5
2016-12-28T02:57:43.185Z,27.5
2016-12-28T02:58:41.625Z,27.5
2016-12-28T02:59:43.361Z,27.5
2016-12-28T03:00:41.735Z,27.4
2016-12-28T03:01:43.524Z,27.5
2016-12-28T03:02:42.047Z,27.5
2016-12-28T03:03:41.888Z,27.5
2016-12-28T03:04:42.014Z,27.4
2016-12-28T03:05:43.666Z,27.5
2016-12-28T03:06:42.173Z,27.5
2016-12-28T03:07:42.243Z,27.5
2016-12-28T03:08:42.239Z,27.5
2016-12-28T03:09:42.326Z,27.5
2016-12-28T03:10:42.515Z,27.5
2016-12-28T03:11:42.465Z,27.5
2016-12-28T03:12:44.244Z,27.5
2016-12-28T03:13:44.132Z,27.5
2016-12-28T03:14:44.200Z,27.5
2016-12-28T03:15:44.336Z,27.5
2016-12-28T03:16:44.432Z,27.5
2016-12-28T03:17:44.441Z,27.5
2016-12-28T03:18:44.523Z,27.5
2016-12-28T03:19:44.675Z,27.4
2016-12-28T03:20:42.925Z,27.5
2016-12-28T03:21:44.517Z,27.5
2016-12-28T03:22:43.075Z,27.5
2016-12-28T03:23:43.344Z,27.5
2016-12-28T03:24:44.911Z,27.5
2016-12-28T03:25:43.426Z,27.5
2016-12-28T03:26:43.506Z,27.5
2016-12-28T03:27:44.114Z,27.5
2016-12-28T03:28:45.202Z,27.5
2016-12-28T03:29:43.725Z,27.5
2016-12-28T03:30:44.930Z,27.5
2016-12-28T03:31:45.275Z,27.5
2016-12-28T03:32:45.385Z,27.5
2016-12-28T03:33:43.740Z,27.5
2016-12-28T03:34:43.722Z,27.5
2016-12-28T03:35:43.715Z,27.4
2016-12-28T03:36:45.393Z,27.5
2016-12-28T03:37:45.354Z,27.5
2016-12-28T03:38:44.532Z,27.5
2016-12-28T03:39:45.521Z,27.5
2016-12-28T03:40:45.565Z,27.5
2016-12-28T03:41:44.068Z,27.5
2016-12-28T03:42:45.595Z,27.5
2016-12-28T03:43:44.245Z,27.5
2016-12-28T03:44:44.344Z,27.5
2016-12-28T03:45:46.004Z,27.5
2016-12-28T03:46:46.086Z,27.5
2016-12-28T03:47:46.059Z,27.5
2016-12-28T03:48:44.680Z,27.5
2016-12-28T03:49:44.683Z,27.5
2016-12-28T03:50:44.674Z,27.5
2016-12-28T03:51:44.769Z,27.5
2016-12-28T03:52:46.340Z,27.5
2016-12-28T03:53:44.808Z,27.5
2016-12-28T03:54:46.441Z,27.5
2016-12-28T03:55:45.041Z,27.5
2016-12-28T03:56:46.707Z,27.4
2016-12-28T03:57:44.962Z,27.5
2016-12-28T03:58:45.053Z,27.4
2016-12-28T03:59:46.840Z,27.5
2016-12-28T04:00:45.183Z,27.4
2016-12-28T04:01:46.675Z,27.4
2016-12-28T04:02:45.178Z,27.4
2016-12-28T04:03:45.434Z,27.5
2016-12-28T04:04:46.964Z,27.4
2016-12-28T04:05:46.938Z,27.4
2016-12-28T04:06:45.492Z,27.4
2016-12-28T04:07:47.233Z,27.4
2016-12-28T04:08:45.679Z,27.4
2016-12-28T04:09:45.691Z,27.4
2016-12-28T04:10:47.093Z,27.4
2016-12-28T04:11:45.548Z,27.4
2016-12-28T04:12:45.750Z,27.4
2016-12-28T04:13:47.314Z,27.4
2016-12-28T04:14:47.433Z,27.4
2016-12-28T04:15:45.879Z,27.4
2016-12-28T04:16:45.797Z,27.4
2016-12-28T04:17:47.361Z,27.4
2016-12-28T04:18:47.359Z,27.4
2016-12-28T04:19:45.873Z,27.4
2016-12-28T04:20:47.606Z,27.4
2016-12-28T04:21:45.974Z,27.4
2016-12-28T04:22:47.720Z,27.4
2016-12-28T04:23:47.778Z,27.4
2016-12-28T04:24:47.722Z,27.4
2016-12-28T04:25:46.231Z,27.4
2016-12-28T04:26:46.264Z,27.4
2016-12-28T04:27:48.058Z,27.4
2016-12-28T04:28:48.094Z,27.4
2016-12-28T04:29:48.159Z,27.4
2016-12-28T04:30:48.225Z,27.4
2016-12-28T04:31:46.678Z,27.4
2016-12-28T04:32:46.756Z,27.4
2016-12-28T04:33:46.720Z,27.4
2016-12-28T04:34:48.458Z,27.4
2016-12-28T04:35:48.471Z,27.4
2016-12-28T04:36:47.012Z,27.4
2016-12-28T04:37:47.014Z,27.4
2016-12-28T04:38:47.039Z,27.4
2016-12-28T04:39:48.605Z,27.4
2016-12-28T04:40:47.207Z,27.4
2016-12-28T04:41:48.835Z,27.4
2016-12-28T04:42:47.144Z,27.4
2016-12-28T04:43:47.864Z,27.4
2016-12-28T04:44:48.888Z,27.4
2016-12-28T04:45:47.481Z,27.4
2016-12-28T04:46:48.888Z,27.4
2016-12-28T04:47:49.019Z,27.4
2016-12-28T04:48:49.068Z,27.4
2016-12-28T04:49:47.540Z,27.4
2016-12-28T04:50:47.638Z,27.4
2016-12-28T04:51:49.095Z,27.4
2016-12-28T04:52:47.626Z,27.4
2016-12-28T04:53:49.358Z,27.4
2016-12-28T04:54:47.734Z,27.3
2016-12-28T04:55:49.427Z,27.4
2016-12-28T04:56:49.352Z,27.4
2016-12-28T04:57:49.601Z,27.4
2016-12-28T04:58:47.932Z,27.4
2016-12-28T04:59:48.062Z,27.4
2016-12-28T05:00:49.553Z,27.4
2016-12-28T05:01:49.695Z,27.4
2016-12-28T05:02:49.638Z,27.4
2016-12-28T05:03:48.168Z,27.4
2016-12-28T05:04:48.118Z,27.4
2016-12-28T05:05:48.166Z,27.4
2016-12-28T05:06:48.202Z,27.4
2016-12-28T05:07:48.218Z,27.4
2016-12-28T05:08:49.805Z,27.4
2016-12-28T05:09:49.934Z,27.4
2016-12-28T05:10:49.918Z,27.4
2016-12-28T05:11:48.368Z,27.4
2016-12-28T05:12:50.000Z,27.4
2016-12-28T05:13:48.476Z,27.4
2016-12-28T05:14:48.498Z,27.4
2016-12-28T05:15:50.200Z,27.4
2016-12-28T05:16:48.619Z,27.4
2016-12-28T05:17:48.758Z,27.3
2016-12-28T05:18:50.341Z,27.4
2016-12-28T05:19:48.847Z,27.4
2016-12-28T05:20:50.474Z,27.4
2016-12-28T05:21:50.460Z,27.4
2016-12-28T05:22:50.457Z,27.4
2016-12-28T05:23:49.011Z,27.3
2016-12-28T05:24:48.916Z,27.3
2016-12-28T05:25:50.721Z,27.4
2016-12-28T05:26:50.782Z,27.4
2016-12-28T05:27:49.179Z,27.4
2016-12-28T05:28:49.268Z,27.3
2016-12-28T05:29:49.350Z,27.4
2016-12-28T05:30:50.958Z,27.4
2016-12-28T05:31:49.460Z,27.4
2016-12-28T05:32:51.010Z,27.4
2016-12-28T05:33:51.132Z,27.4
2016-12-28T05:34:49.595Z,27.4
2016-12-28T05:35:51.285Z,27.3
2016-12-28T05:36:51.210Z,27.4
2016-12-28T05:37:51.268Z,27.4
2016-12-28T05:38:49.787Z,27.3
2016-12-28T05:39:49.794Z,27.3
2016-12-28T05:40:51.526Z,27.3
2016-12-28T05:41:49.975Z,27.4
2016-12-28T05:42:51.545Z,27.4
2016-12-28T05:43:49.969Z,27.4
2016-12-28T05:44:51.643Z,27.4
2016-12-28T05:45:49.969Z,27.3
2016-12-28T05:46:51.580Z,27.3
2016-12-28T05:47:50.203Z,27.4
2016-12-28T05:48:50.132Z,27.4
2016-12-28T05:49:50.212Z,27.4
2016-12-28T05:50:51.977Z,27.4
2016-12-28T05:51:52.010Z,27.4
2016-12-28T05:52:51.922Z,27.3
2016-12-28T05:53:51.944Z,27.3
2016-12-28T05:54:50.488Z,27.4
2016-12-28T05:55:50.397Z,27.4
2016-12-28T05:56:50.602Z,27.4
2016-12-28T05:57:50.714Z,27.4
2016-12-28T05:58:50.592Z,27.3
2016-12-28T05:59:52.162Z,27.4
2016-12-28T06:00:50.702Z,27.4
2016-12-28T06:01:50.743Z,27.4
2016-12-28T06:02:50.681Z,27.4
2016-12-28T06:03:52.446Z,27.4
2016-12-28T06:04:50.706Z,27.4
2016-12-28T06:05:50.722Z,27.4
2016-12-28T06:06:52.433Z,27.4
2016-12-28T06:07:52.501Z,27.4
2016-12-28T06:08:52.440Z,27.4
2016-12-28T06:09:51.128Z,27.4
2016-12-28T06:10:51.120Z,27.4
2016-12-28T06:11:52.689Z,27.4
2016-12-28T06:12:52.693Z,27.4
2016-12-28T06:13:51.245Z,27.4
2016-12-28T06:14:52.890Z,27.4
2016-12-28T06:15:52.851Z,27.4
2016-12-28T06:16:51.290Z,27.4
2016-12-28T06:17:51.432Z,27.4
2016-12-28T06:18:53.077Z,27.4
2016-12-28T06:19:51.503Z,27.4
2016-12-28T06:20:53.150Z,27.4
2016-12-28T06:21:51.501Z,27.4
2016-12-28T06:22:51.704Z,27.4
2016-12-28T06:23:53.209Z,27.4
2016-12-28T06:24:53.417Z,27.4
2016-12-28T06:25:53.494Z,27.4
2016-12-28T06:26:52.010Z,27.4
2016-12-28T06:27:51.955Z,27.5
2016-12-28T06:28:51.929Z,27.5
2016-12-28T06:29:53.638Z,27.5
2016-12-28T06:30:53.630Z,27.5
2016-12-28T06:31:53.713Z,27.5
2016-12-28T06:32:53.745Z,27.5
2016-12-28T06:33:53.773Z,27.4
2016-12-28T06:34:52.194Z,27.4
2016-12-28T06:35:53.869Z,27.5
2016-12-28T06:36:52.410Z,27.4
2016-12-28T06:37:54.091Z,27.4
2016-12-28T06:38:52.463Z,27.5
2016-12-28T06:39:52.536Z,27.5
2016-12-28T06:40:54.061Z,27.5
2016-12-28T06:41:52.590Z,27.5
2016-12-28T06:42:54.376Z,27.5
2016-12-28T06:43:54.347Z,27.5
2016-12-28T06:44:52.818Z,27.5
2016-12-28T06:45:52.853Z,27.5
2016-12-28T06:46:54.401Z,27.5
2016-12-28T06:47:53.031Z,27.5
2016-12-28T06:48:54.710Z,27.5
2016-12-28T06:49:53.084Z,27.5
2016-12-28T06:50:53.318Z,27.5
2016-12-28T06:51:54.951Z,27.5
2016-12-28T06:52:55.007Z,27.4
2016-12-28T06:53:54.925Z,27.5
2016-12-28T06:54:55.029Z,27.5
2016-12-28T06:55:55.203Z,27.5
2016-12-28T06:56:53.431Z,27.5
2016-12-28T06:57:55.141Z,27.5
2016-12-28T06:58:53.476Z,27.5
2016-12-28T06:59:53.489Z,27.5
2016-12-28T07:00:55.303Z,27.5
2016-12-28T07:01:55.935Z,27.5
2016-12-28T07:02:53.695Z,27.5
2016-12-28T07:03:55.444Z,27.5
2016-12-28T07:04:53.942Z,27.5
2016-12-28T07:05:55.598Z,27.5
2016-12-28T07:06:53.947Z,27.5
2016-12-28T07:07:55.566Z,27.5
2016-12-28T07:08:55.647Z,27.5
2016-12-28T07:09:55.794Z,27.5
2016-12-28T07:10:54.188Z,27.5
2016-12-28T07:11:54.142Z,27.5
2016-12-28T07:12:55.981Z,27.5
2016-12-28T07:13:54.311Z,27.5
2016-12-28T07:14:56.113Z,27.5
2016-12-28T07:15:54.556Z,27.5
2016-12-28T07:16:56.061Z,27.5
2016-12-28T07:17:54.602Z,27.5
2016-12-28T07:18:56.147Z,27.5
2016-12-28T07:19:56.341Z,27.5
2016-12-28T07:20:56.246Z,27.5
2016-12-28T07:21:54.724Z,27.4
2016-12-28T07:22:54.732Z,27.5
2016-12-28T07:23:56.564Z,27.5
2016-12-28T07:24:56.423Z,27.5
2016-12-28T07:25:56.500Z,27.5
2016-12-28T07:26:55.081Z,27.5
2016-12-28T07:27:55.093Z,27.5
2016-12-28T07:28:56.675Z,27.5
2016-12-28T07:29:55.108Z,27.5
2016-12-28T07:30:56.798Z,27.5
2016-12-28T07:31:57.027Z,27.5
2016-12-28T07:32:56.926Z,27.5
2016-12-28T07:33:56.997Z,27.5
2016-12-28T07:34:57.030Z,27.5
2016-12-28T07:35:57.127Z,27.5
2016-12-28T07:36:55.587Z,27.5
2016-12-28T07:37:57.167Z,27.5
2016-12-28T07:38:55.725Z,27.5
2016-12-28T07:39:55.803Z,27.5
2016-12-28T07:40:57.471Z,27.5
2016-12-28T07:41:55.853Z,27.5
2016-12-28T07:42:55.883Z,27.5
2016-12-28T07:43:57.531Z,27.5
2016-12-28T07:44:57.468Z,27.5
2016-12-28T07:45:57.596Z,27.5
2016-12-28T07:46:56.088Z,27.5
2016-12-28T07:47:56.240Z,27.5
2016-12-28T07:48:56.165Z,27.5
2016-12-28T07:49:57.849Z,27.5
2016-12-28T07:50:57.837Z,27.5
2016-12-28T07:51:56.224Z,27.5
2016-12-28T07:52:57.805Z,27.5
2016-12-28T07:53:56.300Z,27.5
2016-12-28T07:54:56.470Z,27.5
2016-12-28T07:55:58.040Z,27.5
2016-12-28T07:56:56.481Z,27.5
2016-12-28T07:57:58.231Z,27.5
2016-12-28T07:58:57.268Z,27.5
2016-12-28T07:59:58.207Z,27.5
2016-12-28T08:00:56.607Z,27.5
2016-12-28T08:01:58.411Z,27.5
2016-12-28T08:02:56.779Z,27.5
2016-12-28T08:03:56.934Z,27.5
2016-12-28T08:04:56.988Z,27.5
2016-12-28T08:05:58.518Z,27.5
2016-12-28T08:06:58.725Z,27.5
2016-12-28T08:07:58.735Z,27.5
2016-12-28T08:08:57.086Z,27.5
2016-12-28T08:09:58.815Z,27.5
2016-12-28T08:10:58.891Z,27.5
2016-12-28T08:11:58.886Z,27.5
2016-12-28T08:12:58.807Z,27.5
2016-12-28T08:13:58.942Z,27.5
2016-12-28T08:14:57.508Z,27.5
2016-12-28T08:15:59.175Z,27.5
2016-12-28T08:16:57.631Z,27.6
2016-12-28T08:17:59.280Z,27.6
2016-12-28T08:18:59.198Z,27.5
2016-12-28T08:19:59.323Z,27.6
2016-12-28T08:20:59.343Z,27.6
2016-12-28T08:21:59.418Z,27.6
2016-12-28T08:22:59.520Z,27.5
2016-12-28T08:23:59.459Z,27.6
2016-12-28T08:24:57.836Z,27.6
2016-12-28T08:25:59.519Z,27.5
2016-12-28T08:26:58.174Z,27.6
2016-12-28T08:27:59.810Z,27.6
2016-12-28T08:28:58.145Z,27.5
2016-12-28T08:29:58.228Z,27.6
2016-12-28T08:30:59.898Z,27.6
2016-12-28T08:32:00.019Z,27.6
2016-12-28T08:32:58.374Z,27.6
2016-12-28T08:33:58.405Z,27.6
2016-12-28T08:34:58.540Z,27.6
2016-12-28T08:36:00.069Z,27.6
2016-12-28T08:37:00.180Z,27.6
2016-12-28T08:37:58.617Z,27.6
2016-12-28T08:39:00.275Z,27.6
2016-12-28T08:39:58.762Z,27.6
2016-12-28T08:40:58.855Z,27.6
2016-12-28T08:42:00.389Z,27.6
2016-12-28T08:42:58.894Z,27.6
2016-12-28T08:44:00.532Z,27.6
2016-12-28T08:44:59.083Z,27.6
2016-12-28T08:45:59.143Z,27.6
2016-12-28T08:46:59.075Z,27.6
2016-12-28T08:47:59.094Z,27.6
2016-12-28T08:48:59.191Z,27.6
2016-12-28T08:50:00.921Z,27.6
2016-12-28T08:51:00.992Z,27.6
2016-12-28T08:51:59.393Z,27.6
2016-12-28T08:53:01.074Z,27.6
2016-12-28T08:53:59.412Z,27.6
2016-12-28T08:55:01.243Z,27.6
2016-12-28T08:56:01.078Z,27.6
2016-12-28T08:57:01.271Z,27.6
2016-12-28T08:58:01.467Z,27.6
2016-12-28T08:59:01.481Z,27.6
2016-12-28T08:59:59.843Z,27.6
2016-12-28T09:01:01.472Z,27.6
2016-12-28T09:01:59.890Z,27.6
2016-12-28T09:03:00.121Z,27.6
2016-12-28T09:04:01.629Z,27.6
2016-12-28T09:05:00.122Z,27.6
2016-12-28T09:06:00.319Z,27.6
2016-12-28T09:07:00.289Z,27.6
2016-12-28T09:08:00.255Z,27.6
2016-12-28T09:09:00.463Z,27.6
2016-12-28T09:10:00.530Z,27.6
2016-12-28T09:11:02.085Z,27.6
2016-12-28T09:12:00.533Z,27.6
2016-12-28T09:13:02.139Z,27.6
2016-12-28T09:14:02.307Z,27.6
2016-12-28T09:15:02.357Z,27.7
2016-12-28T09:16:02.271Z,27.7
2016-12-28T09:17:02.475Z,27.6
2016-12-28T09:18:00.805Z,27.7
2016-12-28T09:19:02.527Z,27.7
2016-12-28T09:20:02.584Z,27.6
2016-12-28T09:21:00.924Z,27.6
2016-12-28T09:22:02.514Z,27.6
2016-12-28T09:23:01.067Z,27.7
2016-12-28T09:24:01.123Z,27.7
2016-12-28T09:25:02.742Z,27.7
2016-12-28T09:26:03.224Z,27.7
2016-12-28T09:27:02.859Z,27.6
2016-12-28T09:28:02.785Z,27.6
2016-12-28T09:29:02.783Z,27.7
2016-12-28T09:30:02.861Z,27.7
2016-12-28T09:31:01.309Z,27.7
2016-12-28T09:32:03.058Z,27.7
2016-12-28T09:33:01.392Z,27.7
2016-12-28T09:34:01.481Z,27.7
2016-12-28T09:35:01.698Z,27.7
2016-12-28T09:36:03.303Z,27.7
2016-12-28T09:37:03.394Z,27.7
2016-12-28T09:38:03.466Z,27.7
2016-12-28T09:39:01.858Z,27.7
2016-12-28T09:40:01.922Z,27.8
2016-12-28T09:41:03.484Z,27.8
2016-12-28T09:42:03.568Z,27.8
2016-12-28T09:43:03.551Z,27.8
2016-12-28T09:44:01.949Z,27.8
2016-12-28T09:45:02.056Z,27.8
2016-12-28T09:46:03.764Z,27.8
2016-12-28T09:47:03.828Z,27.8
2016-12-28T09:48:03.982Z,27.8
2016-12-28T09:49:03.885Z,27.8
2016-12-28T09:50:02.336Z,27.9
2016-12-28T09:51:02.309Z,27.9
2016-12-28T09:52:04.069Z,27.9
2016-12-28T09:53:02.397Z,27.9
2016-12-28T09:54:04.068Z,27.9
2016-12-28T09:55:02.670Z,27.9
2016-12-28T09:56:04.192Z,27.9
2016-12-28T09:57:02.667Z,27.8
2016-12-28T09:58:04.349Z,27.9
2016-12-28T09:59:04.462Z,27.9
2016-12-28T10:00:02.909Z,27.9
2016-12-28T10:01:04.445Z,27.9
2016-12-28T10:02:02.932Z,27.9
2016-12-28T10:03:04.508Z,27.9
2016-12-28T10:04:04.638Z,28
2016-12-28T10:05:04.692Z,28
2016-12-28T10:06:03.089Z,28
2016-12-28T10:07:03.074Z,28
2016-12-28T10:08:04.785Z,28
2016-12-28T10:09:04.918Z,28
2016-12-28T10:10:04.922Z,28
2016-12-28T10:11:03.536Z,28
2016-12-28T10:12:03.569Z,28
2016-12-28T10:13:05.257Z,28
2016-12-28T10:14:05.166Z,28
2016-12-28T10:15:05.204Z,28
2016-12-28T10:16:03.725Z,28
2016-12-28T10:17:03.809Z,27.9
2016-12-28T10:18:03.840Z,28
2016-12-28T10:19:03.877Z,28
2016-12-28T10:20:03.820Z,28
2016-12-28T10:21:03.887Z,28
2016-12-28T10:22:04.094Z,28
2016-12-28T10:23:05.655Z,27.9
2016-12-28T10:24:04.123Z,28
2016-12-28T10:25:04.234Z,27.9
2016-12-28T10:26:04.229Z,28
2016-12-28T10:27:04.358Z,27.9
2016-12-28T10:28:06.099Z,28
2016-12-28T10:29:04.652Z,28
2016-12-28T10:30:04.662Z,28
2016-12-28T10:31:06.289Z,28
2016-12-28T10:32:06.293Z,28
2016-12-28T10:33:06.303Z,28
2016-12-28T10:34:04.675Z,28
2016-12-28T10:35:06.213Z,28
2016-12-28T10:36:04.669Z,28
2016-12-28T10:37:04.834Z,28
2016-12-28T10:38:06.367Z,28
2016-12-28T10:39:04.782Z,28
2016-12-28T10:40:06.593Z,28
2016-12-28T10:41:05.030Z,28
2016-12-28T10:42:05.078Z,28
2016-12-28T10:43:04.950Z,28
2016-12-28T10:44:05.025Z,28
2016-12-28T10:45:05.089Z,28
2016-12-28T10:46:05.152Z,28
2016-12-28T10:47:05.154Z,28
2016-12-28T10:48:06.978Z,28
2016-12-28T10:49:05.357Z,28
2016-12-28T10:50:05.441Z,28
2016-12-28T10:51:06.987Z,28
2016-12-28T10:52:05.302Z,28
2016-12-28T10:53:05.470Z,28
2016-12-28T10:54:06.969Z,28
2016-12-28T10:55:07.094Z,28
2016-12-28T10:56:07.146Z,28
2016-12-28T10:57:05.602Z,28
2016-12-28T10:58:07.169Z,28
2016-12-28T10:59:07.281Z,28
2016-12-28T11:00:07.330Z,28.1
2016-12-28T11:01:05.659Z,28.1
2016-12-28T11:02:07.345Z,28.1
2016-12-28T11:03:05.732Z,28.2
2016-12-28T11:04:07.467Z,28.2
2016-12-28T11:05:05.792Z,28.3
2016-12-28T11:06:07.543Z,28.3
2016-12-28T11:07:05.941Z,28.4
2016-12-28T11:08:07.566Z,28.5
2016-12-28T11:09:07.544Z,28.6
2016-12-28T11:10:07.624Z,28.6
2016-12-28T11:11:07.702Z,28.7
2016-12-28T11:12:06.132Z,28.9
2016-12-28T11:13:06.124Z,29
2016-12-28T11:14:07.880Z,29
2016-12-28T11:15:06.315Z,29
2016-12-28T11:16:06.217Z,29
2016-12-28T11:17:07.999Z,29
2016-12-28T11:18:06.439Z,29
2016-12-28T11:19:08.065Z,29
2016-12-28T11:20:06.483Z,29
2016-12-28T11:21:06.356Z,29
2016-12-28T11:22:08.117Z,29
2016-12-28T11:23:06.523Z,29
2016-12-28T11:24:08.263Z,29
2016-12-28T11:25:06.705Z,29
2016-12-28T11:26:06.795Z,28.9
2016-12-28T11:27:08.364Z,29
2016-12-28T11:28:08.364Z,29
2016-12-28T11:29:08.462Z,29
2016-12-28T11:30:07.026Z,29
2016-12-28T11:31:07.130Z,29
2016-12-28T11:32:08.638Z,29
2016-12-28T11:33:08.669Z,29
2016-12-28T11:34:07.290Z,29
2016-12-28T11:35:07.341Z,29
2016-12-28T11:36:07.384Z,29
2016-12-28T11:37:08.920Z,29
2016-12-28T11:38:07.507Z,29
2016-12-28T11:39:09.069Z,29
2016-12-28T11:40:07.462Z,29
2016-12-28T11:41:07.480Z,29
2016-12-28T11:42:07.520Z,29
2016-12-28T11:43:09.266Z,29
2016-12-28T11:44:09.158Z,29
2016-12-28T11:45:07.609Z,29
2016-12-28T11:46:07.678Z,29
2016-12-28T11:47:07.884Z,29
2016-12-28T11:48:07.771Z,29
2016-12-28T11:49:09.577Z,29
2016-12-28T11:50:09.505Z,29
2016-12-28T11:52:07.999Z,29
2016-12-28T11:53:09.666Z,29
2016-12-28T11:54:09.806Z,29
2016-12-28T11:55:09.731Z,29
2016-12-28T11:56:08.091Z,29
2016-12-28T11:57:10.555Z,29
2016-12-28T11:58:08.276Z,28.9
2016-12-28T11:59:10.100Z,28.9
2016-12-28T12:00:08.452Z,28.9
2016-12-28T12:01:10.046Z,29
2016-12-28T12:02:10.033Z,28.9
2016-12-28T12:03:08.471Z,29
2016-12-28T12:04:10.209Z,29
2016-12-28T12:05:10.336Z,29
2016-12-28T12:06:10.230Z,29
2016-12-28T12:07:10.367Z,29
2016-12-28T12:08:08.698Z,29
2016-12-28T12:09:08.888Z,29
2016-12-28T12:10:10.582Z,29
2016-12-28T12:11:09.039Z,29
2016-12-28T12:12:09.146Z,29
2016-12-28T12:13:10.640Z,29
2016-12-28T12:14:10.723Z,29
2016-12-28T12:15:09.255Z,29
2016-12-28T12:16:09.157Z,29
2016-12-28T12:17:09.271Z,28.9
2016-12-28T12:18:09.348Z,28.9
2016-12-28T12:19:10.976Z,28.9
2016-12-28T12:20:09.511Z,28.9
2016-12-28T12:21:09.432Z,28.8
2016-12-28T12:22:09.523Z,28.8
2016-12-28T12:23:09.608Z,28.8
2016-12-28T12:24:11.230Z,28.7
2016-12-28T12:25:09.779Z,28.7
2016-12-28T12:26:11.290Z,28.6
2016-12-28T12:27:09.789Z,28.6
2016-12-28T12:28:09.884Z,28.6
2016-12-28T12:29:11.511Z,28.6
2016-12-28T12:30:09.922Z,28.6
2016-12-28T12:31:11.780Z,28.6
2016-12-28T12:32:11.686Z,28.6
2016-12-28T12:33:10.291Z,28.5
2016-12-28T12:34:10.363Z,28.5
2016-12-28T12:35:11.887Z,28.5
2016-12-28T12:36:10.345Z,28.5
2016-12-28T12:37:10.421Z,28.5
2016-12-28T12:38:12.080Z,28.5
2016-12-28T12:39:10.610Z,28.5
2016-12-28T12:40:12.263Z,28.5
2016-12-28T12:41:10.722Z,28.5
2016-12-28T12:42:10.660Z,28.5
2016-12-28T12:43:12.289Z,28.4
2016-12-28T12:44:10.737Z,28.4
2016-12-28T12:45:12.482Z,28.4
2016-12-28T12:46:12.522Z,28.4
2016-12-28T12:47:12.538Z,28.4
2016-12-28T12:48:12.626Z,28.4
2016-12-28T12:49:11.018Z,28.4
2016-12-28T12:50:12.659Z,28.4
2016-12-28T12:51:12.641Z,28.4
2016-12-28T12:52:12.678Z,28.4
2016-12-28T12:53:12.886Z,28.4
2016-12-28T12:54:11.343Z,28.4
2016-12-28T12:55:13.024Z,28.4
2016-12-28T12:56:12.961Z,28.4
2016-12-28T12:57:11.413Z,28.4
2016-12-28T12:58:11.576Z,28.4
2016-12-28T12:59:11.491Z,28.4
2016-12-28T13:00:11.595Z,28.4
2016-12-28T13:01:11.653Z,28.4
2016-12-28T13:02:11.798Z,28.4
2016-12-28T13:03:11.739Z,28.4
2016-12-28T13:04:11.783Z,28.4
2016-12-28T13:05:11.794Z,28.4
2016-12-28T13:06:11.903Z,28.4
2016-12-28T13:07:11.925Z,28.4
2016-12-28T13:08:13.659Z,28.4
2016-12-28T13:09:13.692Z,28.4
2016-12-28T13:10:12.115Z,28.4
2016-12-28T13:11:13.719Z,28.4
2016-12-28T13:12:12.300Z,28.4
2016-12-28T13:13:12.222Z,28.4
2016-12-28T13:14:14.037Z,28.5
2016-12-28T13:15:13.920Z,28.5
2016-12-28T13:16:12.492Z,28.5
2016-12-28T13:17:14.015Z,28.5
2016-12-28T13:18:12.569Z,28.4
2016-12-28T13:19:12.513Z,28.4
2016-12-28T13:20:12.488Z,28.4
2016-12-28T13:21:14.216Z,28.4
2016-12-28T13:22:14.361Z,28.4
2016-12-28T13:23:14.434Z,28.4
2016-12-28T13:24:12.808Z,28.4
2016-12-28T13:25:14.344Z,28.4
2016-12-28T13:26:14.479Z,28.4
2016-12-28T13:27:14.429Z,28.4